オスロ空港の過去48時間の天気

オスロ空港 (Oslo / Gardermoen)

現在時刻: 9/22 18:40 CEST (9/22 16:40 UTC) 以下の時間は現地時間です。

過去48時間のMETAR気象情報
時間 風向 風速(m/s) 視程 気温(℃) 湿度(%) 気圧(hPa) 天気現象
22 18:20 9 10km以上 13 72 1002
22 17:50 7 10km以上 13 72 1002
22 17:20 8 10km以上 14 67 1003
22 16:50 8 10km以上 14 67 1003
22 16:20 8 10km以上 15 59 1003
22 15:50 7 10km以上 15 59 1003
22 15:20 7 10km以上 16 55 1004
22 14:50 7 10km以上 15 59 1004
22 14:20 6 10km以上 15 59 1004
22 13:50 7 10km以上 15 59 1005
22 13:20 南南東 6 10km以上 15 63 1005
22 12:50 6 10km以上 14 67 1005
22 12:20 5 10km以上 14 67 1005
22 11:50 南南東 5 10km以上 13 72 1005
22 10:50 南東 4 10km以上 13 72 1005
22 10:20 3 10km以上 12 77 1005
22 09:50 4 10km以上 11 82 1005
22 09:20 6 10km以上 11 82 1005
22 08:50 4 10km以上 10 87 1005
22 08:20 南南東 5 10km以上 10 87 1005
22 07:50 南南東 4 10km以上 10 82 1005
22 07:20 南南西 4 10km以上 10 82 1005
22 06:50 南南西 3 10km以上 10 82 1005
22 06:20 4 10km以上 10 82 1005
22 05:50 4 10km以上 10 82 1005
22 05:20 南南西 5 10km以上 11 82 1005
22 04:50 4 10km以上 11 82 1005
22 04:20 4 10km以上 11 76 1005
22 03:50 東南東 2 10km以上 11 76 1005
22 03:20 4 10km以上 12 77 1005
22 02:50 4 10km以上 12 77 1005
22 02:20 5 10km以上 12 71 1005
22 01:50 5 10km以上 12 77 1005
22 01:20 6 10km以上 12 82 1005
22 00:50 6 10km以上 12 82 1005
22 00:20 南南西 5 10km以上 12 88 1006
21 23:50 5 10km以上 12 88 1005
21 23:20 南南西 5 10km以上 13 82 1006
21 22:50 6 10km以上 12 88 1007
21 22:20 南南西 5 10km以上 13 88 1007
21 21:50 南南西 5 10km以上 13 88 1007
ENGM 221620Z 18017KT 9999 BKN022 13/08 Q1002 NOSIG
ENGM 221550Z 18013KT 9999 SCT021 BKN025 13/08 Q1002 NOSIG
ENGM 221520Z 18016KT 9999 BKN024 14/08 Q1003 NOSIG
ENGM 221450Z 18016KT 9999 FEW027 SCT250 14/08 Q1003 NOSIG
ENGM 221420Z 18015KT 140V210 9999 SCT030 15/07 Q1003 NOSIG
ENGM 221350Z 18013KT 9999 FEW033 SCT200 15/07 Q1003 NOSIG
ENGM 221320Z 17013KT 9999 SCT031 BKN200 16/07 Q1004 NOSIG
ENGM 221250Z 18013KT 9999 FEW029 BKN200 15/07 Q1004 NOSIG
ENGM 221220Z 19012KT 160V220 CAVOK 15/07 Q1004 NOSIG
ENGM 221150Z 18013KT CAVOK 15/07 Q1005 NOSIG
ENGM 221120Z 16012KT CAVOK 15/08 Q1005 NOSIG
ENGM 221050Z 17012KT CAVOK 14/08 Q1005 NOSIG
ENGM 221020Z 17010KT CAVOK 14/08 Q1005 NOSIG
ENGM 220950Z 16009KT CAVOK 13/08 Q1005 NOSIG
ENGM 220850Z 14007KT CAVOK 13/08 Q1005 NOSIG
ENGM 220820Z 18005KT 140V210 CAVOK 12/08 Q1005 NOSIG
ENGM 220750Z 18008KT CAVOK 11/08 Q1005 NOSIG
ENGM 220720Z 17011KT CAVOK 11/08 Q1005 NOSIG
ENGM 220650Z 18008KT CAVOK 10/08 Q1005 NOSIG
ENGM 220620Z 16009KT CAVOK 10/08 Q1005 NOSIG
ENGM 220550Z 16007KT CAVOK 10/07 Q1005 NOSIG
ENGM 220520Z 20007KT CAVOK 10/07 Q1005 NOSIG
ENGM 220450Z 20006KT CAVOK 10/07 Q1005 NOSIG
ENGM 220420Z 19008KT CAVOK 10/07 Q1005 NOSIG
ENGM 220350Z 19008KT CAVOK 10/07 Q1005 NOSIG
ENGM 220320Z 20009KT CAVOK 11/08 Q1005
ENGM 220250Z 18008KT CAVOK 11/08 Q1005
ENGM 220220Z 17008KT CAVOK 11/07 Q1005
ENGM 220150Z 12004KT 080V150 CAVOK 11/07 Q1005
ENGM 220120Z 17007KT CAVOK 12/08 Q1005
ENGM 220050Z 17008KT CAVOK 12/08 Q1005
ENGM 220020Z 18009KT CAVOK 12/07 Q1005
ENGM 212350Z 18010KT CAVOK 12/08 Q1005
ENGM 212320Z 17011KT CAVOK 12/09 Q1005
ENGM 212250Z 18012KT CAVOK 12/09 Q1005
ENGM 212220Z 20009KT CAVOK 12/10 Q1006
ENGM 212150Z 19009KT CAVOK 12/10 Q1005
ENGM 212120Z 21009KT CAVOK 13/10 Q1006
ENGM 212050Z 19011KT CAVOK 12/10 Q1007 NOSIG
ENGM 212020Z 20010KT CAVOK 13/11 Q1007 NOSIG
ENGM 211950Z 20010KT 9999 FEW014 BKN180 13/11 Q1007 NOSIG